Terminal Aerodrome Forecast
Issued by NWS Duluth, MN

Home | Current Version | Previous Version | Text Only | Print | Product List | Glossary On
Versions: 1 2 3 4 5 6 7 8 9 10 11 12 13 14 15 16 17 18 19 20 21 22 23 24 25 26
091
FTUS43 KDLH 211535 AAA
TAFINL
TAF AMD
KINL 211535Z 2116/2212 15010KT P6SM FEW250
     FM211900 15012G20KT P6SM FEW250
     FM220000 14008KT P6SM SCT250
     FM220300 13008KT P6SM SCT040 SCT100 WS020/19045KT
     FM220600 16005KT 6SM BR VCSH BKN050 WS020/21035KT
     FM221100 16004KT 4SM BR SCT010=

USA.gov is the U.S. government's official web portal to all federal, state and local government web resources and services.